Time;durP1;ratioP1;P1;durP2;ratioP2;P2;SDS_P1;SDS_P2;PMS_P1;PMS_P2;Temp;Humidity;BMP_temperature;BMP_pressure;BME280_temperature;BME280_humidity;BME280_pressure;Samples;Min_cycle;Max_cycle;Signal;HPM_P1;HPM_P2
2021/06/14 00:04:17;;;;;;;;;13.00;9.33;;;;;;;;8846662;40;10865;-58
2021/06/14 00:10:19;;;;;;;;;6.00;6.00;;;;;;;;8846623;40;9874;-58
2021/06/14 00:16:23;;;;;;;;;7.00;7.00;;;;;;;;8846999;40;9850;-58
2021/06/14 00:22:25;;;;;;;;;7.33;7.33;;;;;;;;8846422;40;9878;-58
2021/06/14 00:28:27;;;;;;;;;6.67;6.67;;;;;;;;8845714;40;9884;-59
2021/06/14 00:34:30;;;;;;;;;6.00;6.00;;;;;;;;8848576;40;10028;-59
2021/06/14 00:40:32;;;;;;;;;6.00;6.00;;;;;;;;8846441;40;9874;-59
2021/06/14 00:46:34;;;;;;;;;7.00;7.00;;;;;;;;8849164;40;9874;-59
2021/06/14 00:52:38;;;;;;;;;7.67;7.67;;;;;;;;8848631;40;9865;-61
2021/06/14 00:58:42;;;;;;;;;5.67;4.33;;;;;;;;8840768;40;9800;-58
2021/06/14 01:04:45;;;;;;;;;10.00;10.00;;;;;;;;8848670;40;10418;-59
2021/06/14 01:10:50;;;;;;;;;4.00;2.67;;;;;;;;8850941;40;9848;-59
2021/06/14 01:17:04;;;;;;;;;6.00;6.00;;;;;;;;8851184;40;9860;-60
2021/06/14 01:23:34;;;;;;;;;8.00;8.00;;;;;;;;8840496;40;9858;-60
2021/06/14 01:29:38;;;;;;;;;9.00;5.67;;;;;;;;8850364;40;10394;-59
2021/06/14 01:35:46;;;;;;;;;7.00;7.00;;;;;;;;8845350;40;10394;-60
2021/06/14 01:41:48;;;;;;;;;6.67;6.67;;;;;;;;8839211;40;9858;-59
2021/06/14 01:47:54;;;;;;;;;8.67;8.00;;;;;;;;8850165;40;9818;-59
2021/06/14 01:54:03;;;;;;;;;8.00;6.00;;;;;;;;8839623;40;9889;-59
2021/06/14 02:00:10;;;;;;;;;6.00;6.00;;;;;;;;8840464;40;9836;-58
2021/06/14 02:06:16;;;;;;;;;8.67;7.00;;;;;;;;8849213;40;9874;-59
2021/06/14 02:12:18;;;;;;;;;5.33;5.33;;;;;;;;8840457;40;9852;-58
2021/06/14 02:18:23;;;;;;;;;7.00;6.00;;;;;;;;8849522;40;10409;-58
2021/06/14 02:24:33;;;;;;;;;11.00;7.00;;;;;;;;8839231;40;9942;-59
2021/06/14 02:30:36;;;;;;;;;8.67;8.67;;;;;;;;8848838;40;9966;-59
2021/06/14 02:36:40;;;;;;;;;6.00;6.00;;;;;;;;8849692;40;10117;-58
2021/06/14 02:42:45;;;;;;;;;8.67;8.00;;;;;;;;8839795;40;9912;-59
2021/06/14 02:48:49;;;;;;;;;8.00;6.67;;;;;;;;8847280;40;9878;-59
2021/06/14 02:55:03;;;;;;;;;7.00;7.00;;;;;;;;8849421;40;9798;-58
2021/06/14 03:01:07;;;;;;;;;8.33;8.33;;;;;;;;8848337;40;9911;-59
2021/06/14 03:07:09;;;;;;;;;7.67;7.67;;;;;;;;8847130;40;9861;-58
2021/06/14 03:13:13;;;;;;;;;8.67;8.33;;;;;;;;8838264;40;9862;-59
2021/06/14 03:19:21;;;;;;;;;8.00;8.00;;;;;;;;8838962;40;10031;-59
2021/06/14 03:25:25;;;;;;;;;8.00;8.00;;;;;;;;8838749;40;9887;-58
2021/06/14 03:31:28;;;;;;;;;9.00;8.00;;;;;;;;8846801;40;10044;-59
2021/06/14 03:37:35;;;;;;;;;11.00;10.00;;;;;;;;8847241;40;9874;-59
2021/06/14 03:43:37;;;;;;;;;7.00;7.00;;;;;;;;8847729;40;9798;-59
2021/06/14 03:49:39;;;;;;;;;9.67;9.67;;;;;;;;8848072;40;10895;-60
2021/06/14 03:55:41;;;;;;;;;11.00;11.00;;;;;;;;8847097;40;9904;-59
2021/06/14 04:01:43;;;;;;;;;9.33;8.00;;;;;;;;9900287;23;10575;-54
2021/06/14 04:07:45;;;;;;;;;9.00;9.00;;;;;;;;8840736;40;9967;-58
2021/06/14 04:13:50;;;;;;;;;11.33;11.33;;;;;;;;8849555;40;9907;-57
2021/06/14 04:19:52;;;;;;;;;11.00;9.00;;;;;;;;8852168;40;9834;-56
2021/06/14 04:25:54;;;;;;;;;7.33;7.33;;;;;;;;8852444;40;9841;-58
2021/06/14 04:31:58;;;;;;;;;10.33;10.00;;;;;;;;8836644;40;9880;-58
2021/06/14 04:38:00;;;;;;;;;7.00;6.00;;;;;;;;8823006;40;9919;-55
2021/06/14 04:44:02;;;;;;;;;8.00;8.00;;;;;;;;8850921;40;10011;-52
2021/06/14 04:50:05;;;;;;;;;9.00;9.00;;;;;;;;8852429;40;9863;-57
2021/06/14 04:56:07;;;;;;;;;8.00;8.00;;;;;;;;8851433;40;9992;-57
2021/06/14 05:02:09;;;;;;;;;10.00;8.00;;;;;;;;8850597;40;9816;-55
2021/06/14 05:08:12;;;;;;;;;12.00;12.00;;;;;;;;8853435;40;9806;-55
2021/06/14 05:14:18;;;;;;;;;9.00;9.00;;;;;;;;8851105;40;10163;-56
2021/06/14 05:20:20;;;;;;;;;11.33;9.33;;;;;;;;8852589;40;9842;-56
2021/06/14 05:26:22;;;;;;;;;14.00;12.67;;;;;;;;8852035;40;9904;-56
2021/06/14 05:32:23;;;;;;;;;10.00;9.67;;;;;;;;8866018;40;10849;-56
2021/06/14 05:38:26;;;;;;;;;10.00;10.00;;;;;;;;8878398;40;10405;-56
2021/06/14 05:44:28;;;;;;;;;10.00;9.00;;;;;;;;8876281;40;11218;-56
2021/06/14 05:50:30;;;;;;;;;13.00;10.33;;;;;;;;8873688;40;10541;-56
2021/06/14 05:56:33;;;;;;;;;18.00;13.67;;;;;;;;8841829;40;11088;-57
2021/06/14 06:02:35;;;;;;;;;10.50;9.75;;;;;;;;8850235;40;10844;-55
2021/06/14 06:08:37;;;;;;;;;10.00;10.00;;;;;;;;8855692;40;11233;-56
2021/06/14 06:14:39;;;;;;;;;11.67;11.67;;;;;;;;8852298;40;10722;-56
2021/06/14 06:20:41;;;;;;;;;14.00;14.00;;;;;;;;8838938;40;10527;-58
2021/06/14 06:26:43;;;;;;;;;17.33;16.33;;;;;;;;8841706;40;10376;-57
2021/06/14 06:32:47;;;;;;;;;13.00;13.00;;;;;;;;8845703;40;10795;-57
2021/06/14 06:38:49;;;;;;;;;11.50;11.50;;;;;;;;8849269;40;10680;-54
2021/06/14 06:44:52;;;;;;;;;21.25;18.75;;;;;;;;8847805;40;10848;-55
2021/06/14 06:50:58;;;;;;;;;10.25;8.25;;;;;;;;8846837;40;10461;-57
2021/06/14 06:57:00;;;;;;;;;10.00;10.00;;;;;;;;8854504;40;10462;-58
2021/06/14 07:03:02;;;;;;;;;9.00;7.75;;;;;;;;8839367;40;10397;-55
2021/06/14 07:09:09;;;;;;;;;8.25;7.25;;;;;;;;8850411;40;10287;-55
2021/06/14 07:15:12;;;;;;;;;6.25;6.25;;;;;;;;8855642;40;11278;-56
2021/06/14 07:21:14;;;;;;;;;10.50;10.50;;;;;;;;8854119;40;10281;-55
2021/06/14 07:27:17;;;;;;;;;5.75;4.00;;;;;;;;8859355;40;10318;-55
2021/06/14 07:33:19;;;;;;;;;6.00;5.75;;;;;;;;8857702;40;10335;-55
2021/06/14 07:39:20;;;;;;;;;6.25;6.25;;;;;;;;8846745;40;10517;-59
2021/06/14 07:45:24;;;;;;;;;8.25;7.75;;;;;;;;8847414;40;10860;-56
2021/06/14 07:51:26;;;;;;;;;9.00;7.75;;;;;;;;8840892;40;10565;-55
2021/06/14 07:57:28;;;;;;;;;8.75;6.50;;;;;;;;8843703;40;10460;-54
2021/06/14 08:03:32;;;;;;;;;6.75;6.75;;;;;;;;8824411;40;10458;-58
2021/06/14 08:09:36;;;;;;;;;10.00;8.00;;;;;;;;8839329;40;10626;-54
2021/06/14 08:15:39;;;;;;;;;8.25;8.25;;;;;;;;8850505;40;10234;-57
2021/06/14 08:28:03;;;;;;;;;11.50;9.75;;;;;;;;8845207;40;10302;-57
2021/06/14 08:34:05;;;;;;;;;8.75;6.00;;;;;;;;8852218;40;10348;-55
2021/06/14 08:40:08;;;;;;;;;8.25;6.25;;;;;;;;8850746;40;10567;-57
2021/06/14 08:46:12;;;;;;;;;8.50;6.75;;;;;;;;8852483;40;10333;-55
2021/06/14 08:52:14;;;;;;;;;8.25;8.25;;;;;;;;8846644;40;10228;-54
2021/06/14 08:58:16;;;;;;;;;7.25;7.25;;;;;;;;8844056;40;10983;-58
2021/06/14 09:04:19;;;;;;;;;5.75;5.00;;;;;;;;8844868;40;10524;-59
2021/06/14 09:10:30;;;;;;;;;7.00;5.00;;;;;;;;8831970;40;10353;-58
2021/06/14 09:16:32;;;;;;;;;8.50;6.25;;;;;;;;8838844;40;10276;-57
2021/06/14 09:22:34;;;;;;;;;6.00;6.00;;;;;;;;8848550;40;10202;-58
2021/06/14 09:28:46;;;;;;;;;2.25;2.25;;;;;;;;8848916;40;10562;-58
2021/06/14 09:34:53;;;;;;;;;4.00;4.00;;;;;;;;8847110;40;10502;-58
2021/06/14 09:40:57;;;;;;;;;5.25;3.50;;;;;;;;8829213;40;10335;-54
2021/06/14 09:46:59;;;;;;;;;1.75;1.75;;;;;;;;8834962;40;10424;-56
2021/06/14 09:53:12;;;;;;;;;2.00;2.00;;;;;;;;8847686;40;10362;-58
2021/06/14 09:59:27;;;;;;;;;2.25;1.75;;;;;;;;8845017;40;10647;-57
2021/06/14 10:05:29;;;;;;;;;2.00;2.00;;;;;;;;8842936;40;10400;-59
2021/06/14 10:11:34;;;;;;;;;1.00;1.00;;;;;;;;8843912;40;10366;-55
2021/06/14 10:17:38;;;;;;;;;1.25;1.00;;;;;;;;8842051;40;10282;-54
2021/06/14 10:23:41;;;;;;;;;3.50;3.50;;;;;;;;8845306;40;10283;-55
2021/06/14 10:29:44;;;;;;;;;2.25;2.25;;;;;;;;8847702;40;10322;-58
2021/06/14 10:35:46;;;;;;;;;2.50;2.50;;;;;;;;8815814;40;10360;-58
2021/06/14 10:41:48;;;;;;;;;3.00;3.00;;;;;;;;8837144;40;10434;-60
2021/06/14 10:47:50;;;;;;;;;4.50;4.50;;;;;;;;8846446;40;10363;-58
2021/06/14 10:54:05;;;;;;;;;2.00;2.00;;;;;;;;8845935;40;10354;-58
2021/06/14 11:00:31;;;;;;;;;3.00;3.00;;;;;;;;8833365;40;10385;-59
2021/06/14 11:06:36;;;;;;;;;1.25;1.25;;;;;;;;8841029;40;10274;-57
2021/06/14 11:12:40;;;;;;;;;1.50;1.50;;;;;;;;8847792;40;10491;-57
2021/06/14 11:18:42;;;;;;;;;2.75;2.75;;;;;;;;8843894;40;10337;-56
2021/06/14 11:24:45;;;;;;;;;2.75;2.75;;;;;;;;8837549;40;10489;-59
2021/06/14 11:30:49;;;;;;;;;3.25;2.75;;;;;;;;8829450;40;10277;-57
2021/06/14 11:36:57;;;;;;;;;2.25;2.25;;;;;;;;8831126;40;10657;-58
2021/06/14 11:43:11;;;;;;;;;5.75;4.00;;;;;;;;8842789;40;10395;-54
2021/06/14 11:49:14;;;;;;;;;7.50;5.75;;;;;;;;8845808;40;10395;-57
2021/06/14 11:55:16;;;;;;;;;4.25;3.75;;;;;;;;8846704;40;10358;-56
2021/06/14 12:01:33;;;;;;;;;4.50;4.50;;;;;;;;8845089;40;10476;-55
2021/06/14 12:07:36;;;;;;;;;4.00;4.00;;;;;;;;8845886;40;10326;-58
2021/06/14 12:13:38;;;;;;;;;4.25;4.25;;;;;;;;8835478;40;10338;-58
2021/06/14 12:19:40;;;;;;;;;7.00;7.00;;;;;;;;8844504;40;10633;-57
2021/06/14 12:25:45;;;;;;;;;5.75;5.50;;;;;;;;8844647;40;10319;-58
2021/06/14 12:31:59;;;;;;;;;6.50;6.50;;;;;;;;8846157;40;10844;-57
2021/06/14 12:38:09;;;;;;;;;3.75;3.75;;;;;;;;8845161;40;10525;-58
2021/06/14 12:44:12;;;;;;;;;6.00;5.00;;;;;;;;8825650;40;10436;-57
2021/06/14 12:50:21;;;;;;;;;4.50;4.50;;;;;;;;8841934;40;11028;-58
2021/06/14 12:56:22;;;;;;;;;4.00;4.00;;;;;;;;8834125;40;10518;-55
2021/06/14 13:02:26;;;;;;;;;4.50;4.50;;;;;;;;8850114;40;10693;-57
2021/06/14 13:08:39;;;;;;;;;4.25;3.50;;;;;;;;8849671;40;10597;-59
2021/06/14 13:14:41;;;;;;;;;5.50;5.50;;;;;;;;8849771;40;10353;-52
2021/06/14 13:20:48;;;;;;;;;7.25;7.25;;;;;;;;8831226;40;10926;-57
2021/06/14 13:26:52;;;;;;;;;4.75;4.75;;;;;;;;8831351;40;10499;-55
2021/06/14 13:38:59;;;;;;;;;4.50;4.00;;;;;;;;8837362;40;10424;-52
2021/06/14 13:45:05;;;;;;;;;7.75;7.25;;;;;;;;8842427;40;10303;-57
2021/06/14 13:51:12;;;;;;;;;2.00;2.00;;;;;;;;8812806;40;10470;-57
2021/06/14 13:57:16;;;;;;;;;3.00;3.00;;;;;;;;8824491;40;10859;-58
2021/06/14 14:03:27;;;;;;;;;5.75;4.75;;;;;;;;8837202;40;10274;-56
2021/06/14 14:09:29;;;;;;;;;5.00;5.00;;;;;;;;8847373;40;10777;-55
2021/06/14 14:15:31;;;;;;;;;7.00;7.00;;;;;;;;8843723;40;10472;-57
2021/06/14 14:21:33;;;;;;;;;8.00;8.00;;;;;;;;8848571;40;10780;-56
2021/06/14 14:27:35;;;;;;;;;4.00;4.00;;;;;;;;8842274;40;10578;-58
2021/06/14 14:33:37;;;;;;;;;5.25;5.25;;;;;;;;8828583;40;10304;-58
2021/06/14 14:39:39;;;;;;;;;7.25;6.50;;;;;;;;8829438;40;10582;-59
2021/06/14 14:45:43;;;;;;;;;3.25;3.25;;;;;;;;8842445;40;10259;-58
2021/06/14 14:51:45;;;;;;;;;3.00;2.50;;;;;;;;8843896;40;10475;-61
2021/06/14 14:57:48;;;;;;;;;1.00;1.00;;;;;;;;8844118;40;10343;-62
2021/06/14 15:03:50;;;;;;;;;2.75;2.00;;;;;;;;8847957;40;10348;-58
2021/06/14 15:09:52;;;;;;;;;4.00;4.00;;;;;;;;8848210;40;10414;-60
2021/06/14 15:15:54;;;;;;;;;1.25;1.25;;;;;;;;8849346;40;10317;-60
2021/06/14 15:22:18;;;;;;;;;3.50;3.50;;;;;;;;8848577;40;10280;-58
2021/06/14 15:28:21;;;;;;;;;4.00;4.00;;;;;;;;8848971;40;10354;-60
2021/06/14 15:34:23;;;;;;;;;3.25;3.25;;;;;;;;8848674;40;10322;-58
2021/06/14 15:40:29;;;;;;;;;3.00;3.00;;;;;;;;8848150;40;10281;-59
2021/06/14 15:46:32;;;;;;;;;5.00;3.00;;;;;;;;8839276;40;10298;-58
2021/06/14 15:52:34;;;;;;;;;1.00;1.00;;;;;;;;8847811;40;10279;-60
2021/06/14 15:58:36;;;;;;;;;3.50;3.50;;;;;;;;8848027;40;10262;-58
2021/06/14 16:04:38;;;;;;;;;2.00;2.00;;;;;;;;8822398;40;10359;-58
2021/06/14 16:10:40;;;;;;;;;2.50;2.00;;;;;;;;8829675;40;10469;-59
2021/06/14 16:16:43;;;;;;;;;5.50;5.50;;;;;;;;8847872;40;10280;-60
2021/06/14 16:22:47;;;;;;;;;4.00;4.00;;;;;;;;8846951;40;10378;-59
2021/06/14 16:28:49;;;;;;;;;2.25;2.25;;;;;;;;8846898;40;10414;-59
2021/06/14 16:34:51;;;;;;;;;3.00;2.75;;;;;;;;8837210;40;10338;-58
2021/06/14 16:40:53;;;;;;;;;9.00;7.00;;;;;;;;8847103;40;10473;-58
2021/06/14 16:47:01;;;;;;;;;5.25;5.25;;;;;;;;8847044;40;10708;-59
2021/06/14 16:53:03;;;;;;;;;2.75;2.00;;;;;;;;8847924;40;10550;-59
2021/06/14 16:59:05;;;;;;;;;2.00;1.00;;;;;;;;8846476;40;11181;-61
2021/06/14 17:05:09;;;;;;;;;1.50;1.00;;;;;;;;8846890;40;10601;-58
2021/06/14 17:11:11;;;;;;;;;1.00;1.00;;;;;;;;8846549;40;11204;-58
2021/06/14 17:17:13;;;;;;;;;2.33;2.33;;;;;;;;8845801;40;10372;-59
2021/06/14 17:23:15;;;;;;;;;4.67;4.67;;;;;;;;8846862;40;10360;-60
2021/06/14 17:29:37;;;;;;;;;2.67;2.67;;;;;;;;8849314;40;10742;-58
2021/06/14 17:35:39;;;;;;;;;5.00;5.00;;;;;;;;8849004;40;10329;-57
2021/06/14 17:41:41;;;;;;;;;3.67;3.67;;;;;;;;8849580;40;10071;-58
2021/06/14 17:47:49;;;;;;;;;3.33;3.33;;;;;;;;8849514;40;10259;-57
2021/06/14 17:54:06;;;;;;;;;4.33;4.33;;;;;;;;8849539;40;9814;-58
2021/06/14 18:00:12;;;;;;;;;8.67;7.33;;;;;;;;8849065;40;9854;-58
2021/06/14 18:06:15;;;;;;;;;5.67;4.67;;;;;;;;8849140;40;9874;-59
2021/06/14 18:12:17;;;;;;;;;5.67;5.67;;;;;;;;8848445;40;9885;-58
2021/06/14 18:18:21;;;;;;;;;7.33;5.00;;;;;;;;8848753;40;9942;-60
2021/06/14 18:24:23;;;;;;;;;2.67;2.67;;;;;;;;8849272;40;9867;-57
2021/06/14 18:30:30;;;;;;;;;3.00;3.00;;;;;;;;8850003;40;10542;-58
2021/06/14 18:36:32;;;;;;;;;6.33;5.33;;;;;;;;8850215;40;10621;-57
2021/06/14 18:42:34;;;;;;;;;5.00;5.00;;;;;;;;8848451;40;9897;-58
2021/06/14 18:48:36;;;;;;;;;6.00;6.00;;;;;;;;8849434;40;9875;-57
2021/06/14 18:54:38;;;;;;;;;2.00;2.00;;;;;;;;8849842;40;10392;-60
2021/06/14 19:00:41;;;;;;;;;7.00;4.67;;;;;;;;8848175;40;10469;-57
2021/06/14 19:06:43;;;;;;;;;3.00;3.00;;;;;;;;8840217;40;9951;-58
2021/06/14 19:12:45;;;;;;;;;5.33;5.33;;;;;;;;8848936;40;9836;-58
2021/06/14 19:18:47;;;;;;;;;3.00;3.00;;;;;;;;8838647;40;9867;-56
2021/06/14 19:24:51;;;;;;;;;7.00;5.33;;;;;;;;8848960;40;10127;-55
2021/06/14 19:30:53;;;;;;;;;5.33;5.33;;;;;;;;8848758;40;9827;-57
2021/06/14 19:36:55;;;;;;;;;3.00;3.00;;;;;;;;8847590;40;9864;-57
2021/06/14 19:42:57;;;;;;;;;5.33;5.33;;;;;;;;8847900;40;9883;-58
2021/06/14 19:48:59;;;;;;;;;2.33;2.00;;;;;;;;8847303;40;9934;-57
2021/06/14 19:55:03;;;;;;;;;3.67;3.67;;;;;;;;8848104;40;10413;-58
2021/06/14 20:01:05;;;;;;;;;3.00;3.00;;;;;;;;8847399;40;9864;-59
2021/06/14 20:07:12;;;;;;;;;3.67;2.00;;;;;;;;8847599;40;9811;-60
2021/06/14 20:13:14;;;;;;;;;3.00;3.00;;;;;;;;8847949;40;10681;-59
2021/06/14 20:19:16;;;;;;;;;4.33;4.33;;;;;;;;8848135;40;9875;-58
2021/06/14 20:25:18;;;;;;;;;3.00;3.00;;;;;;;;8849960;40;9820;-58
2021/06/14 20:31:20;;;;;;;;;2.00;2.00;;;;;;;;8848234;40;10400;-56
2021/06/14 20:37:23;;;;;;;;;4.00;4.00;;;;;;;;8846420;40;9801;-59
2021/06/14 20:43:25;;;;;;;;;2.00;2.00;;;;;;;;8848685;40;9897;-58
2021/06/14 20:49:27;;;;;;;;;3.00;3.00;;;;;;;;8846930;40;9861;-56
2021/06/14 20:55:29;;;;;;;;;4.00;4.00;;;;;;;;8837752;40;9780;-56
2021/06/14 21:01:31;;;;;;;;;4.00;4.00;;;;;;;;8849476;40;9923;-58
2021/06/14 21:07:35;;;;;;;;;3.00;3.00;;;;;;;;8851377;40;10070;-57
2021/06/14 21:13:37;;;;;;;;;2.67;1.67;;;;;;;;8850963;40;9827;-57
2021/06/14 21:19:39;;;;;;;;;3.00;3.00;;;;;;;;8840431;40;9848;-56
2021/06/14 21:25:41;;;;;;;;;2.33;2.00;;;;;;;;8850226;40;9871;-57
2021/06/14 21:31:43;;;;;;;;;3.00;3.00;;;;;;;;8849831;40;9811;-55
2021/06/14 21:37:45;;;;;;;;;3.00;2.67;;;;;;;;8850195;40;10390;-60
2021/06/14 21:43:50;;;;;;;;;7.00;3.00;;;;;;;;8849301;40;10062;-58
2021/06/14 21:49:52;;;;;;;;;4.00;4.00;;;;;;;;8848896;40;10453;-57
2021/06/14 21:55:54;;;;;;;;;3.00;3.00;;;;;;;;8848682;40;9899;-57
2021/06/14 22:01:56;;;;;;;;;2.00;2.00;;;;;;;;8848714;40;11931;-56
2021/06/14 22:07:59;;;;;;;;;4.33;3.00;;;;;;;;8848881;40;9940;-57
2021/06/14 22:14:08;;;;;;;;;3.00;2.33;;;;;;;;8848038;40;9777;-58
2021/06/14 22:20:11;;;;;;;;;2.00;2.00;;;;;;;;8848150;40;10458;-57
2021/06/14 22:26:13;;;;;;;;;2.33;2.33;;;;;;;;8849225;40;9860;-54
2021/06/14 22:32:15;;;;;;;;;2.00;2.00;;;;;;;;8849636;40;9816;-56
2021/06/14 22:38:18;;;;;;;;;3.00;3.00;;;;;;;;8848249;40;10085;-56
2021/06/14 22:44:21;;;;;;;;;3.00;3.00;;;;;;;;8848031;40;9908;-57
2021/06/14 22:50:23;;;;;;;;;2.00;2.00;;;;;;;;8848219;40;9899;-57
2021/06/14 22:56:26;;;;;;;;;2.67;2.67;;;;;;;;8848693;40;9839;-57
2021/06/14 23:02:28;;;;;;;;;3.00;2.33;;;;;;;;8847950;40;9809;-57
2021/06/14 23:08:30;;;;;;;;;3.00;3.00;;;;;;;;8848173;40;9837;-57
2021/06/14 23:14:32;;;;;;;;;2.00;2.00;;;;;;;;8848559;40;9859;-58
2021/06/14 23:20:34;;;;;;;;;3.00;3.00;;;;;;;;8847138;40;9882;-58
2021/06/14 23:26:36;;;;;;;;;2.67;2.67;;;;;;;;8848054;40;9832;-58
2021/06/14 23:32:38;;;;;;;;;3.00;3.00;;;;;;;;8847369;40;10425;-57
2021/06/14 23:38:40;;;;;;;;;2.00;2.00;;;;;;;;8846930;40;9805;-57
2021/06/14 23:44:42;;;;;;;;;7.33;3.00;;;;;;;;8836547;40;9817;-56
2021/06/14 23:50:44;;;;;;;;;4.67;4.67;;;;;;;;8847562;40;9903;-56
2021/06/14 23:56:46;;;;;;;;;3.00;3.00;;;;;;;;8847204;40;9829;-57
